sensor_id;sensor_type;location;lat;lon;timestamp;P1;durP1;ratioP1;P2;durP2;ratioP2
59512;SDS011;45330;51.634;5.562;2024-01-15T00:02:05;15.10;;;5.47;;
59512;SDS011;45330;51.634;5.562;2024-01-15T00:04:35;15.20;;;5.65;;
59512;SDS011;45330;51.634;5.562;2024-01-15T00:07:01;14.32;;;5.43;;
59512;SDS011;45330;51.634;5.562;2024-01-15T00:09:27;15.60;;;5.35;;
59512;SDS011;45330;51.634;5.562;2024-01-15T00:11:52;13.60;;;5.47;;
59512;SDS011;45330;51.634;5.562;2024-01-15T00:14:18;17.40;;;5.80;;
59512;SDS011;45330;51.634;5.562;2024-01-15T00:16:45;14.65;;;5.50;;
59512;SDS011;45330;51.634;5.562;2024-01-15T00:19:10;15.35;;;5.70;;
59512;SDS011;45330;51.634;5.562;2024-01-15T00:21:36;14.45;;;5.82;;
59512;SDS011;45330;51.634;5.562;2024-01-15T00:24:01;17.05;;;6.00;;
59512;SDS011;45330;51.634;5.562;2024-01-15T00:26:27;19.77;;;6.43;;
59512;SDS011;45330;51.634;5.562;2024-01-15T00:28:52;15.52;;;6.13;;
59512;SDS011;45330;51.634;5.562;2024-01-15T00:31:17;18.83;;;6.00;;
59512;SDS011;45330;51.634;5.562;2024-01-15T00:33:43;14.65;;;5.72;;
59512;SDS011;45330;51.634;5.562;2024-01-15T00:36:08;16.80;;;5.75;;
59512;SDS011;45330;51.634;5.562;2024-01-15T00:38:34;16.17;;;5.75;;
59512;SDS011;45330;51.634;5.562;2024-01-15T00:40:59;16.08;;;5.18;;
59512;SDS011;45330;51.634;5.562;2024-01-15T00:43:24;16.38;;;5.50;;
59512;SDS011;45330;51.634;5.562;2024-01-15T00:45:50;16.63;;;5.40;;
59512;SDS011;45330;51.634;5.562;2024-01-15T00:48:15;16.65;;;5.50;;
59512;SDS011;45330;51.634;5.562;2024-01-15T00:50:40;15.90;;;5.10;;
59512;SDS011;45330;51.634;5.562;2024-01-15T00:53:06;15.60;;;5.15;;
59512;SDS011;45330;51.634;5.562;2024-01-15T00:55:31;15.40;;;5.10;;
59512;SDS011;45330;51.634;5.562;2024-01-15T00:57:56;15.70;;;5.10;;
59512;SDS011;45330;51.634;5.562;2024-01-15T01:00:22;19.38;;;5.53;;
59512;SDS011;45330;51.634;5.562;2024-01-15T01:02:47;13.70;;;5.00;;
59512;SDS011;45330;51.634;5.562;2024-01-15T01:05:13;15.27;;;5.25;;
59512;SDS011;45330;51.634;5.562;2024-01-15T01:07:38;14.88;;;5.18;;
59512;SDS011;45330;51.634;5.562;2024-01-15T01:10:04;15.80;;;5.15;;
59512;SDS011;45330;51.634;5.562;2024-01-15T01:12:30;17.20;;;5.43;;
59512;SDS011;45330;51.634;5.562;2024-01-15T01:14:55;17.02;;;5.13;;
59512;SDS011;45330;51.634;5.562;2024-01-15T01:17:21;15.80;;;4.70;;
59512;SDS011;45330;51.634;5.562;2024-01-15T01:19:47;14.10;;;4.78;;
59512;SDS011;45330;51.634;5.562;2024-01-15T01:22:12;16.23;;;5.15;;
59512;SDS011;45330;51.634;5.562;2024-01-15T01:24:37;14.05;;;5.22;;
59512;SDS011;45330;51.634;5.562;2024-01-15T01:27:03;20.65;;;5.20;;
59512;SDS011;45330;51.634;5.562;2024-01-15T01:29:28;14.52;;;4.97;;
59512;SDS011;45330;51.634;5.562;2024-01-15T01:31:54;18.67;;;5.38;;
59512;SDS011;45330;51.634;5.562;2024-01-15T01:34:19;13.23;;;4.85;;
59512;SDS011;45330;51.634;5.562;2024-01-15T01:36:44;18.92;;;5.43;;
59512;SDS011;45330;51.634;5.562;2024-01-15T01:39:10;15.65;;;4.95;;
59512;SDS011;45330;51.634;5.562;2024-01-15T01:41:35;15.65;;;4.95;;
59512;SDS011;45330;51.634;5.562;2024-01-15T01:44:01;17.35;;;5.13;;
59512;SDS011;45330;51.634;5.562;2024-01-15T01:46:27;19.77;;;5.30;;
59512;SDS011;45330;51.634;5.562;2024-01-15T01:48:53;19.55;;;5.03;;
59512;SDS011;45330;51.634;5.562;2024-01-15T01:51:20;16.33;;;4.38;;
59512;SDS011;45330;51.634;5.562;2024-01-15T01:53:47;16.42;;;4.70;;
59512;SDS011;45330;51.634;5.562;2024-01-15T01:56:14;15.05;;;4.60;;
59512;SDS011;45330;51.634;5.562;2024-01-15T01:58:40;17.95;;;4.28;;
59512;SDS011;45330;51.634;5.562;2024-01-15T02:01:06;16.25;;;4.10;;
59512;SDS011;45330;51.634;5.562;2024-01-15T02:03:32;14.48;;;3.90;;
59512;SDS011;45330;51.634;5.562;2024-01-15T02:05:58;18.05;;;4.40;;
59512;SDS011;45330;51.634;5.562;2024-01-15T02:08:25;14.73;;;3.85;;
59512;SDS011;45330;51.634;5.562;2024-01-15T02:10:50;16.75;;;4.50;;
59512;SDS011;45330;51.634;5.562;2024-01-15T02:13:16;13.32;;;3.65;;
59512;SDS011;45330;51.634;5.562;2024-01-15T02:15:42;18.33;;;3.80;;
59512;SDS011;45330;51.634;5.562;2024-01-15T02:18:08;13.77;;;3.50;;
59512;SDS011;45330;51.634;5.562;2024-01-15T02:20:33;18.35;;;3.88;;
59512;SDS011;45330;51.634;5.562;2024-01-15T02:23:14;16.48;;;3.70;;
59512;SDS011;45330;51.634;5.562;2024-01-15T02:25:41;19.52;;;3.25;;
59512;SDS011;45330;51.634;5.562;2024-01-15T02:28:10;14.63;;;3.88;;
59512;SDS011;45330;51.634;5.562;2024-01-15T02:30:41;16.55;;;3.80;;
59512;SDS011;45330;51.634;5.562;2024-01-15T02:33:07;12.73;;;3.30;;
59512;SDS011;45330;51.634;5.562;2024-01-15T02:35:33;17.40;;;3.20;;
59512;SDS011;45330;51.634;5.562;2024-01-15T02:38:03;16.20;;;3.40;;
59512;SDS011;45330;51.634;5.562;2024-01-15T02:40:29;18.73;;;3.92;;
59512;SDS011;45330;51.634;5.562;2024-01-15T02:42:54;15.25;;;3.45;;
59512;SDS011;45330;51.634;5.562;2024-01-15T02:45:20;13.73;;;3.45;;
59512;SDS011;45330;51.634;5.562;2024-01-15T02:47:46;14.55;;;3.65;;
59512;SDS011;45330;51.634;5.562;2024-01-15T02:50:12;15.25;;;3.60;;
59512;SDS011;45330;51.634;5.562;2024-01-15T02:52:38;13.30;;;3.38;;
59512;SDS011;45330;51.634;5.562;2024-01-15T02:55:03;13.57;;;3.13;;
59512;SDS011;45330;51.634;5.562;2024-01-15T02:57:29;16.80;;;3.67;;
59512;SDS011;45330;51.634;5.562;2024-01-15T02:59:54;12.85;;;3.55;;
59512;SDS011;45330;51.634;5.562;2024-01-15T03:02:19;20.75;;;3.42;;
59512;SDS011;45330;51.634;5.562;2024-01-15T03:04:45;15.77;;;3.25;;
59512;SDS011;45330;51.634;5.562;2024-01-15T03:07:10;14.88;;;3.70;;
59512;SDS011;45330;51.634;5.562;2024-01-15T03:09:36;14.68;;;3.00;;
59512;SDS011;45330;51.634;5.562;2024-01-15T03:12:01;17.60;;;3.90;;
59512;SDS011;45330;51.634;5.562;2024-01-15T03:14:27;13.70;;;3.35;;
59512;SDS011;45330;51.634;5.562;2024-01-15T03:16:52;17.55;;;3.30;;
59512;SDS011;45330;51.634;5.562;2024-01-15T03:19:18;19.83;;;3.20;;
59512;SDS011;45330;51.634;5.562;2024-01-15T03:21:43;16.25;;;3.10;;
59512;SDS011;45330;51.634;5.562;2024-01-15T03:24:09;17.25;;;3.03;;
59512;SDS011;45330;51.634;5.562;2024-01-15T03:26:34;14.60;;;3.00;;
59512;SDS011;45330;51.634;5.562;2024-01-15T03:28:59;15.93;;;3.20;;
59512;SDS011;45330;51.634;5.562;2024-01-15T03:31:25;13.60;;;2.78;;
59512;SDS011;45330;51.634;5.562;2024-01-15T03:33:50;15.65;;;2.85;;
59512;SDS011;45330;51.634;5.562;2024-01-15T03:36:15;16.00;;;2.70;;
59512;SDS011;45330;51.634;5.562;2024-01-15T03:38:41;11.95;;;2.60;;
59512;SDS011;45330;51.634;5.562;2024-01-15T03:41:07;13.35;;;3.00;;
59512;SDS011;45330;51.634;5.562;2024-01-15T03:43:32;15.23;;;2.55;;
59512;SDS011;45330;51.634;5.562;2024-01-15T03:45:58;14.10;;;2.60;;
59512;SDS011;45330;51.634;5.562;2024-01-15T03:48:23;13.43;;;2.65;;
59512;SDS011;45330;51.634;5.562;2024-01-15T03:50:49;13.23;;;3.25;;
59512;SDS011;45330;51.634;5.562;2024-01-15T03:53:14;12.50;;;2.92;;
59512;SDS011;45330;51.634;5.562;2024-01-15T03:55:40;12.00;;;2.90;;
59512;SDS011;45330;51.634;5.562;2024-01-15T03:58:05;18.80;;;3.10;;
59512;SDS011;45330;51.634;5.562;2024-01-15T04:00:31;12.52;;;3.30;;
59512;SDS011;45330;51.634;5.562;2024-01-15T04:02:56;13.43;;;2.80;;
59512;SDS011;45330;51.634;5.562;2024-01-15T04:05:21;14.73;;;2.97;;
59512;SDS011;45330;51.634;5.562;2024-01-15T04:07:47;17.17;;;3.17;;
59512;SDS011;45330;51.634;5.562;2024-01-15T04:10:12;18.33;;;3.30;;
59512;SDS011;45330;51.634;5.562;2024-01-15T04:12:38;18.52;;;3.63;;
59512;SDS011;45330;51.634;5.562;2024-01-15T04:15:03;15.75;;;3.35;;
59512;SDS011;45330;51.634;5.562;2024-01-15T04:17:29;15.60;;;2.90;;
59512;SDS011;45330;51.634;5.562;2024-01-15T04:19:54;17.45;;;2.72;;
59512;SDS011;45330;51.634;5.562;2024-01-15T04:22:20;17.88;;;2.80;;
59512;SDS011;45330;51.634;5.562;2024-01-15T04:24:45;21.05;;;3.15;;
59512;SDS011;45330;51.634;5.562;2024-01-15T04:27:11;18.98;;;3.20;;
59512;SDS011;45330;51.634;5.562;2024-01-15T04:29:39;20.27;;;3.50;;
59512;SDS011;45330;51.634;5.562;2024-01-15T04:32:05;14.32;;;3.28;;
59512;SDS011;45330;51.634;5.562;2024-01-15T04:34:30;19.42;;;3.70;;
59512;SDS011;45330;51.634;5.562;2024-01-15T04:36:56;19.70;;;3.45;;
59512;SDS011;45330;51.634;5.562;2024-01-15T04:39:22;18.75;;;3.67;;
59512;SDS011;45330;51.634;5.562;2024-01-15T04:41:47;18.10;;;3.17;;
59512;SDS011;45330;51.634;5.562;2024-01-15T04:44:13;17.10;;;3.70;;
59512;SDS011;45330;51.634;5.562;2024-01-15T04:46:38;13.77;;;3.05;;
59512;SDS011;45330;51.634;5.562;2024-01-15T04:49:04;15.32;;;3.40;;
59512;SDS011;45330;51.634;5.562;2024-01-15T04:51:29;13.90;;;3.17;;
59512;SDS011;45330;51.634;5.562;2024-01-15T04:53:54;19.48;;;3.60;;
59512;SDS011;45330;51.634;5.562;2024-01-15T04:56:20;16.20;;;3.13;;
59512;SDS011;45330;51.634;5.562;2024-01-15T04:58:45;15.25;;;3.42;;
59512;SDS011;45330;51.634;5.562;2024-01-15T05:01:11;17.30;;;3.85;;
59512;SDS011;45330;51.634;5.562;2024-01-15T05:03:37;18.88;;;3.92;;
59512;SDS011;45330;51.634;5.562;2024-01-15T05:06:02;14.70;;;3.15;;
59512;SDS011;45330;51.634;5.562;2024-01-15T05:08:28;18.48;;;3.47;;
59512;SDS011;45330;51.634;5.562;2024-01-15T05:10:53;12.55;;;3.50;;
59512;SDS011;45330;51.634;5.562;2024-01-15T05:13:18;15.45;;;3.10;;
59512;SDS011;45330;51.634;5.562;2024-01-15T05:15:44;10.85;;;2.80;;
59512;SDS011;45330;51.634;5.562;2024-01-15T05:18:09;11.70;;;2.60;;
59512;SDS011;45330;51.634;5.562;2024-01-15T05:20:34;14.77;;;3.13;;
59512;SDS011;45330;51.634;5.562;2024-01-15T05:23:00;13.90;;;2.75;;
59512;SDS011;45330;51.634;5.562;2024-01-15T05:25:25;10.65;;;2.60;;
59512;SDS011;45330;51.634;5.562;2024-01-15T05:27:51;10.52;;;2.67;;
59512;SDS011;45330;51.634;5.562;2024-01-15T05:30:16;9.45;;;2.30;;
59512;SDS011;45330;51.634;5.562;2024-01-15T05:32:41;8.15;;;2.60;;
59512;SDS011;45330;51.634;5.562;2024-01-15T05:35:07;11.05;;;2.42;;
59512;SDS011;45330;51.634;5.562;2024-01-15T05:37:32;13.82;;;2.65;;
59512;SDS011;45330;51.634;5.562;2024-01-15T05:39:58;8.27;;;2.05;;
59512;SDS011;45330;51.634;5.562;2024-01-15T05:42:23;13.60;;;2.47;;
59512;SDS011;45330;51.634;5.562;2024-01-15T05:44:49;6.72;;;2.33;;
59512;SDS011;45330;51.634;5.562;2024-01-15T05:47:14;9.15;;;2.10;;
59512;SDS011;45330;51.634;5.562;2024-01-15T05:49:40;9.18;;;2.30;;
59512;SDS011;45330;51.634;5.562;2024-01-15T05:52:05;6.97;;;2.63;;
59512;SDS011;45330;51.634;5.562;2024-01-15T05:54:31;11.85;;;3.38;;
59512;SDS011;45330;51.634;5.562;2024-01-15T05:56:56;12.23;;;3.13;;
59512;SDS011;45330;51.634;5.562;2024-01-15T05:59:22;13.35;;;3.70;;
59512;SDS011;45330;51.634;5.562;2024-01-15T06:01:47;15.95;;;3.53;;
59512;SDS011;45330;51.634;5.562;2024-01-15T06:04:12;14.98;;;3.83;;
59512;SDS011;45330;51.634;5.562;2024-01-15T06:06:38;11.02;;;3.65;;
59512;SDS011;45330;51.634;5.562;2024-01-15T06:09:03;13.80;;;3.80;;
59512;SDS011;45330;51.634;5.562;2024-01-15T06:11:33;14.35;;;4.00;;
59512;SDS011;45330;51.634;5.562;2024-01-15T06:13:59;15.57;;;4.00;;
59512;SDS011;45330;51.634;5.562;2024-01-15T06:16:27;13.00;;;3.95;;
59512;SDS011;45330;51.634;5.562;2024-01-15T06:18:53;13.43;;;3.70;;
59512;SDS011;45330;51.634;5.562;2024-01-15T06:21:18;11.25;;;3.47;;
59512;SDS011;45330;51.634;5.562;2024-01-15T06:23:44;14.60;;;3.55;;
59512;SDS011;45330;51.634;5.562;2024-01-15T06:26:11;11.45;;;3.80;;
59512;SDS011;45330;51.634;5.562;2024-01-15T06:28:37;12.40;;;3.92;;
59512;SDS011;45330;51.634;5.562;2024-01-15T06:31:02;12.65;;;3.70;;
59512;SDS011;45330;51.634;5.562;2024-01-15T06:33:28;13.05;;;3.70;;
59512;SDS011;45330;51.634;5.562;2024-01-15T06:35:53;12.18;;;3.47;;
59512;SDS011;45330;51.634;5.562;2024-01-15T06:38:19;12.30;;;3.88;;
59512;SDS011;45330;51.634;5.562;2024-01-15T06:40:45;14.98;;;4.25;;
59512;SDS011;45330;51.634;5.562;2024-01-15T06:43:14;16.73;;;4.32;;
59512;SDS011;45330;51.634;5.562;2024-01-15T06:45:40;13.30;;;4.50;;
59512;SDS011;45330;51.634;5.562;2024-01-15T06:48:06;17.35;;;4.47;;
59512;SDS011;45330;51.634;5.562;2024-01-15T06:50:32;16.58;;;4.95;;
59512;SDS011;45330;51.634;5.562;2024-01-15T06:52:58;16.67;;;5.10;;
59512;SDS011;45330;51.634;5.562;2024-01-15T06:55:23;16.42;;;5.00;;
59512;SDS011;45330;51.634;5.562;2024-01-15T06:57:49;16.50;;;5.80;;
59512;SDS011;45330;51.634;5.562;2024-01-15T07:00:14;19.30;;;6.18;;
59512;SDS011;45330;51.634;5.562;2024-01-15T07:02:40;16.27;;;5.60;;
59512;SDS011;45330;51.634;5.562;2024-01-15T07:05:06;18.38;;;5.93;;
59512;SDS011;45330;51.634;5.562;2024-01-15T07:07:32;17.42;;;5.95;;
59512;SDS011;45330;51.634;5.562;2024-01-15T07:09:57;19.10;;;6.55;;
59512;SDS011;45330;51.634;5.562;2024-01-15T07:12:22;20.42;;;6.35;;
59512;SDS011;45330;51.634;5.562;2024-01-15T07:14:48;19.35;;;6.72;;
59512;SDS011;45330;51.634;5.562;2024-01-15T07:17:14;19.10;;;6.72;;
59512;SDS011;45330;51.634;5.562;2024-01-15T07:19:39;20.63;;;6.43;;
59512;SDS011;45330;51.634;5.562;2024-01-15T07:22:05;19.05;;;6.80;;
59512;SDS011;45330;51.634;5.562;2024-01-15T07:24:31;20.42;;;6.63;;
59512;SDS011;45330;51.634;5.562;2024-01-15T07:26:59;18.88;;;6.75;;
59512;SDS011;45330;51.634;5.562;2024-01-15T07:29:24;18.95;;;6.13;;
59512;SDS011;45330;51.634;5.562;2024-01-15T07:31:50;18.38;;;6.60;;
59512;SDS011;45330;51.634;5.562;2024-01-15T07:34:16;15.98;;;5.85;;
59512;SDS011;45330;51.634;5.562;2024-01-15T07:36:43;17.58;;;6.07;;
59512;SDS011;45330;51.634;5.562;2024-01-15T07:39:09;17.63;;;5.90;;
59512;SDS011;45330;51.634;5.562;2024-01-15T07:41:35;17.85;;;5.75;;
59512;SDS011;45330;51.634;5.562;2024-01-15T07:44:00;20.38;;;5.45;;
59512;SDS011;45330;51.634;5.562;2024-01-15T07:46:26;18.00;;;5.57;;
59512;SDS011;45330;51.634;5.562;2024-01-15T07:48:51;17.60;;;5.47;;
59512;SDS011;45330;51.634;5.562;2024-01-15T07:51:21;19.50;;;5.53;;
59512;SDS011;45330;51.634;5.562;2024-01-15T07:53:47;18.33;;;5.85;;
59512;SDS011;45330;51.634;5.562;2024-01-15T07:56:13;18.10;;;5.80;;
59512;SDS011;45330;51.634;5.562;2024-01-15T07:58:38;19.20;;;5.65;;
59512;SDS011;45330;51.634;5.562;2024-01-15T08:01:03;17.80;;;5.60;;
59512;SDS011;45330;51.634;5.562;2024-01-15T08:03:29;17.17;;;5.68;;
59512;SDS011;45330;51.634;5.562;2024-01-15T08:05:54;17.25;;;5.55;;
59512;SDS011;45330;51.634;5.562;2024-01-15T08:08:22;18.27;;;5.88;;
59512;SDS011;45330;51.634;5.562;2024-01-15T08:10:48;17.45;;;5.28;;
59512;SDS011;45330;51.634;5.562;2024-01-15T08:13:14;17.17;;;5.68;;
59512;SDS011;45330;51.634;5.562;2024-01-15T08:15:40;18.40;;;5.50;;
59512;SDS011;45330;51.634;5.562;2024-01-15T08:18:06;17.08;;;5.68;;
59512;SDS011;45330;51.634;5.562;2024-01-15T08:20:31;16.40;;;5.10;;
59512;SDS011;45330;51.634;5.562;2024-01-15T08:22:56;16.60;;;5.45;;
59512;SDS011;45330;51.634;5.562;2024-01-15T08:25:22;18.85;;;5.63;;
59512;SDS011;45330;51.634;5.562;2024-01-15T08:27:47;15.55;;;5.22;;
59512;SDS011;45330;51.634;5.562;2024-01-15T08:30:13;16.80;;;5.75;;
59512;SDS011;45330;51.634;5.562;2024-01-15T08:32:39;24.33;;;6.57;;
59512;SDS011;45330;51.634;5.562;2024-01-15T08:35:07;16.75;;;5.78;;
59512;SDS011;45330;51.634;5.562;2024-01-15T08:37:36;18.80;;;5.60;;
59512;SDS011;45330;51.634;5.562;2024-01-15T08:40:02;16.75;;;5.45;;
59512;SDS011;45330;51.634;5.562;2024-01-15T08:42:28;14.98;;;5.65;;
59512;SDS011;45330;51.634;5.562;2024-01-15T08:44:54;18.45;;;6.07;;
59512;SDS011;45330;51.634;5.562;2024-01-15T08:47:19;16.20;;;5.78;;
59512;SDS011;45330;51.634;5.562;2024-01-15T08:49:45;16.42;;;6.22;;
59512;SDS011;45330;51.634;5.562;2024-01-15T08:52:11;18.67;;;5.80;;
59512;SDS011;45330;51.634;5.562;2024-01-15T08:54:36;17.23;;;6.25;;
59512;SDS011;45330;51.634;5.562;2024-01-15T08:57:02;17.65;;;6.38;;
59512;SDS011;45330;51.634;5.562;2024-01-15T08:59:27;15.60;;;5.95;;
59512;SDS011;45330;51.634;5.562;2024-01-15T09:01:53;15.45;;;5.72;;
59512;SDS011;45330;51.634;5.562;2024-01-15T09:04:19;17.10;;;6.20;;
59512;SDS011;45330;51.634;5.562;2024-01-15T09:06:47;17.25;;;6.63;;
59512;SDS011;45330;51.634;5.562;2024-01-15T09:09:13;18.20;;;6.82;;
59512;SDS011;45330;51.634;5.562;2024-01-15T09:11:40;19.50;;;7.80;;
59512;SDS011;45330;51.634;5.562;2024-01-15T09:14:06;19.20;;;7.50;;
59512;SDS011;45330;51.634;5.562;2024-01-15T09:16:31;20.35;;;7.95;;
59512;SDS011;45330;51.634;5.562;2024-01-15T09:18:57;21.27;;;7.97;;
59512;SDS011;45330;51.634;5.562;2024-01-15T09:21:22;20.02;;;8.52;;
59512;SDS011;45330;51.634;5.562;2024-01-15T09:23:49;20.27;;;8.90;;
59512;SDS011;45330;51.634;5.562;2024-01-15T09:26:15;20.00;;;8.38;;
59512;SDS011;45330;51.634;5.562;2024-01-15T09:28:40;20.70;;;8.95;;
59512;SDS011;45330;51.634;5.562;2024-01-15T09:31:06;21.58;;;9.27;;
59512;SDS011;45330;51.634;5.562;2024-01-15T09:33:31;22.70;;;10.23;;
59512;SDS011;45330;51.634;5.562;2024-01-15T09:35:56;22.45;;;10.25;;
59512;SDS011;45330;51.634;5.562;2024-01-15T09:38:22;22.10;;;10.07;;
59512;SDS011;45330;51.634;5.562;2024-01-15T09:40:48;21.85;;;10.15;;
59512;SDS011;45330;51.634;5.562;2024-01-15T09:43:14;20.00;;;8.95;;
59512;SDS011;45330;51.634;5.562;2024-01-15T09:45:40;21.25;;;8.73;;
59512;SDS011;45330;51.634;5.562;2024-01-15T09:48:07;21.73;;;8.00;;
59512;SDS011;45330;51.634;5.562;2024-01-15T09:50:33;20.73;;;8.15;;
59512;SDS011;45330;51.634;5.562;2024-01-15T09:52:59;18.63;;;6.93;;
59512;SDS011;45330;51.634;5.562;2024-01-15T09:55:25;19.13;;;5.90;;
59512;SDS011;45330;51.634;5.562;2024-01-15T09:57:51;20.00;;;6.30;;
59512;SDS011;45330;51.634;5.562;2024-01-15T10:00:18;15.52;;;4.47;;
59512;SDS011;45330;51.634;5.562;2024-01-15T10:02:44;13.50;;;4.13;;
59512;SDS011;45330;51.634;5.562;2024-01-15T10:05:11;11.85;;;3.60;;
59512;SDS011;45330;51.634;5.562;2024-01-15T10:07:37;16.25;;;3.72;;
59512;SDS011;45330;51.634;5.562;2024-01-15T10:10:03;10.45;;;2.90;;
59512;SDS011;45330;51.634;5.562;2024-01-15T10:12:28;12.77;;;3.05;;
59512;SDS011;45330;51.634;5.562;2024-01-15T10:14:55;9.27;;;2.40;;
59512;SDS011;45330;51.634;5.562;2024-01-15T10:17:21;13.57;;;2.97;;
59512;SDS011;45330;51.634;5.562;2024-01-15T10:19:46;9.95;;;2.47;;
59512;SDS011;45330;51.634;5.562;2024-01-15T10:22:13;11.43;;;2.55;;
59512;SDS011;45330;51.634;5.562;2024-01-15T10:24:40;13.88;;;2.55;;
59512;SDS011;45330;51.634;5.562;2024-01-15T10:27:06;9.18;;;2.40;;
59512;SDS011;45330;51.634;5.562;2024-01-15T10:29:35;9.40;;;2.10;;
59512;SDS011;45330;51.634;5.562;2024-01-15T10:32:01;14.60;;;2.58;;
59512;SDS011;45330;51.634;5.562;2024-01-15T10:34:27;9.15;;;2.30;;
59512;SDS011;45330;51.634;5.562;2024-01-15T10:36:53;12.52;;;2.28;;
59512;SDS011;45330;51.634;5.562;2024-01-15T10:39:22;11.18;;;2.53;;
59512;SDS011;45330;51.634;5.562;2024-01-15T10:41:48;9.32;;;2.38;;
59512;SDS011;45330;51.634;5.562;2024-01-15T10:44:16;8.30;;;2.70;;
59512;SDS011;45330;51.634;5.562;2024-01-15T10:46:44;7.47;;;1.92;;
59512;SDS011;45330;51.634;5.562;2024-01-15T10:49:10;11.85;;;2.20;;
59512;SDS011;45330;51.634;5.562;2024-01-15T10:51:36;12.00;;;2.20;;
59512;SDS011;45330;51.634;5.562;2024-01-15T10:54:02;7.05;;;1.83;;
59512;SDS011;45330;51.634;5.562;2024-01-15T10:56:29;5.32;;;1.75;;
59512;SDS011;45330;51.634;5.562;2024-01-15T10:58:56;5.80;;;1.70;;
59512;SDS011;45330;51.634;5.562;2024-01-15T11:01:22;7.88;;;2.00;;
59512;SDS011;45330;51.634;5.562;2024-01-15T11:03:48;7.40;;;2.45;;
59512;SDS011;45330;51.634;5.562;2024-01-15T11:06:18;9.02;;;2.83;;
59512;SDS011;45330;51.634;5.562;2024-01-15T11:08:50;8.98;;;2.90;;
59512;SDS011;45330;51.634;5.562;2024-01-15T11:11:17;8.30;;;3.22;;
59512;SDS011;45330;51.634;5.562;2024-01-15T11:13:43;7.85;;;3.17;;
59512;SDS011;45330;51.634;5.562;2024-01-15T11:16:11;13.45;;;3.72;;
59512;SDS011;45330;51.634;5.562;2024-01-15T11:18:42;12.02;;;3.90;;
59512;SDS011;45330;51.634;5.562;2024-01-15T11:21:26;11.23;;;3.90;;
59512;SDS011;45330;51.634;5.562;2024-01-15T11:23:56;12.27;;;4.47;;
59512;SDS011;45330;51.634;5.562;2024-01-15T11:28:55;12.77;;;4.25;;
59512;SDS011;45330;51.634;5.562;2024-01-15T11:31:28;10.00;;;3.35;;
59512;SDS011;45330;51.634;5.562;2024-01-15T11:33:54;10.98;;;3.38;;
59512;SDS011;45330;51.634;5.562;2024-01-15T11:36:21;13.15;;;3.45;;
59512;SDS011;45330;51.634;5.562;2024-01-15T11:41:57;13.07;;;3.88;;
59512;SDS011;45330;51.634;5.562;2024-01-15T11:44:24;12.18;;;3.65;;
59512;SDS011;45330;51.634;5.562;2024-01-15T11:47:00;11.75;;;3.45;;
59512;SDS011;45330;51.634;5.562;2024-01-15T11:52:21;7.53;;;2.58;;
59512;SDS011;45330;51.634;5.562;2024-01-15T11:54:48;6.07;;;2.28;;
59512;SDS011;45330;51.634;5.562;2024-01-15T11:57:17;9.60;;;2.20;;
59512;SDS011;45330;51.634;5.562;2024-01-15T11:59:50;8.13;;;2.33;;
59512;SDS011;45330;51.634;5.562;2024-01-15T12:02:16;6.93;;;2.17;;
59512;SDS011;45330;51.634;5.562;2024-01-15T12:04:41;7.95;;;2.10;;
59512;SDS011;45330;51.634;5.562;2024-01-15T12:07:07;9.20;;;2.17;;
59512;SDS011;45330;51.634;5.562;2024-01-15T12:09:33;8.65;;;2.00;;
59512;SDS011;45330;51.634;5.562;2024-01-15T12:12:01;7.85;;;2.38;;
59512;SDS011;45330;51.634;5.562;2024-01-15T12:14:32;5.63;;;1.58;;
59512;SDS011;45330;51.634;5.562;2024-01-15T12:16:59;6.15;;;1.67;;
59512;SDS011;45330;51.634;5.562;2024-01-15T12:19:25;4.97;;;1.80;;
59512;SDS011;45330;51.634;5.562;2024-01-15T12:21:51;4.20;;;1.80;;
59512;SDS011;45330;51.634;5.562;2024-01-15T12:24:16;5.55;;;1.77;;
59512;SDS011;45330;51.634;5.562;2024-01-15T12:26:42;5.50;;;1.60;;
59512;SDS011;45330;51.634;5.562;2024-01-15T12:29:08;4.55;;;1.80;;
59512;SDS011;45330;51.634;5.562;2024-01-15T12:31:36;7.13;;;2.00;;
59512;SDS011;45330;51.634;5.562;2024-01-15T12:34:01;5.93;;;1.95;;
59512;SDS011;45330;51.634;5.562;2024-01-15T12:36:30;3.90;;;2.30;;
59512;SDS011;45330;51.634;5.562;2024-01-15T12:38:58;4.40;;;2.40;;
59512;SDS011;45330;51.634;5.562;2024-01-15T12:41:24;9.13;;;3.33;;
59512;SDS011;45330;51.634;5.562;2024-01-15T12:43:50;6.20;;;3.03;;
59512;SDS011;45330;51.634;5.562;2024-01-15T12:46:16;8.75;;;3.05;;
59512;SDS011;45330;51.634;5.562;2024-01-15T12:48:41;7.75;;;2.97;;
59512;SDS011;45330;51.634;5.562;2024-01-15T12:51:07;5.63;;;3.10;;
59512;SDS011;45330;51.634;5.562;2024-01-15T12:53:33;6.43;;;2.78;;
59512;SDS011;45330;51.634;5.562;2024-01-15T12:55:58;8.23;;;2.97;;
59512;SDS011;45330;51.634;5.562;2024-01-15T12:58:24;4.18;;;2.53;;
59512;SDS011;45330;51.634;5.562;2024-01-15T13:00:49;6.13;;;2.80;;
59512;SDS011;45330;51.634;5.562;2024-01-15T13:03:15;11.73;;;2.85;;
59512;SDS011;45330;51.634;5.562;2024-01-15T13:05:40;7.72;;;2.50;;
59512;SDS011;45330;51.634;5.562;2024-01-15T13:08:06;5.88;;;2.40;;
59512;SDS011;45330;51.634;5.562;2024-01-15T13:10:32;6.65;;;2.72;;
59512;SDS011;45330;51.634;5.562;2024-01-15T13:12:57;7.50;;;2.70;;
59512;SDS011;45330;51.634;5.562;2024-01-15T13:15:23;6.60;;;2.65;;
59512;SDS011;45330;51.634;5.562;2024-01-15T13:17:48;8.48;;;2.67;;
59512;SDS011;45330;51.634;5.562;2024-01-15T13:20:14;3.45;;;2.40;;
59512;SDS011;45330;51.634;5.562;2024-01-15T13:22:39;7.50;;;2.40;;
59512;SDS011;45330;51.634;5.562;2024-01-15T13:25:05;5.88;;;2.80;;
59512;SDS011;45330;51.634;5.562;2024-01-15T13:27:32;6.32;;;3.13;;
59512;SDS011;45330;51.634;5.562;2024-01-15T13:30:00;7.65;;;3.40;;
59512;SDS011;45330;51.634;5.562;2024-01-15T13:32:25;9.70;;;3.60;;
59512;SDS011;45330;51.634;5.562;2024-01-15T13:34:55;10.30;;;3.63;;
59512;SDS011;45330;51.634;5.562;2024-01-15T13:37:21;7.60;;;3.63;;
59512;SDS011;45330;51.634;5.562;2024-01-15T13:39:48;8.00;;;3.88;;
59512;SDS011;45330;51.634;5.562;2024-01-15T13:42:14;9.50;;;4.00;;
59512;SDS011;45330;51.634;5.562;2024-01-15T13:44:40;9.30;;;3.90;;
59512;SDS011;45330;51.634;5.562;2024-01-15T13:47:06;8.15;;;3.72;;
59512;SDS011;45330;51.634;5.562;2024-01-15T13:49:31;7.90;;;3.72;;
59512;SDS011;45330;51.634;5.562;2024-01-15T13:51:59;9.85;;;3.25;;
59512;SDS011;45330;51.634;5.562;2024-01-15T13:54:24;8.98;;;3.38;;
59512;SDS011;45330;51.634;5.562;2024-01-15T13:56:49;7.10;;;3.08;;
59512;SDS011;45330;51.634;5.562;2024-01-15T13:59:15;9.02;;;3.05;;
59512;SDS011;45330;51.634;5.562;2024-01-15T14:01:40;8.50;;;3.10;;
59512;SDS011;45330;51.634;5.562;2024-01-15T14:04:07;11.82;;;3.00;;
59512;SDS011;45330;51.634;5.562;2024-01-15T14:06:32;7.45;;;2.90;;
59512;SDS011;45330;51.634;5.562;2024-01-15T14:08:58;5.70;;;2.70;;
59512;SDS011;45330;51.634;5.562;2024-01-15T14:11:23;6.43;;;2.60;;
59512;SDS011;45330;51.634;5.562;2024-01-15T14:13:48;9.27;;;2.60;;
59512;SDS011;45330;51.634;5.562;2024-01-15T14:16:14;10.52;;;2.88;;
59512;SDS011;45330;51.634;5.562;2024-01-15T14:18:39;7.10;;;2.80;;
59512;SDS011;45330;51.634;5.562;2024-01-15T14:21:05;8.75;;;2.63;;
59512;SDS011;45330;51.634;5.562;2024-01-15T14:23:30;6.45;;;2.80;;
59512;SDS011;45330;51.634;5.562;2024-01-15T14:25:56;6.90;;;2.40;;
59512;SDS011;45330;51.634;5.562;2024-01-15T14:28:21;12.23;;;2.97;;
59512;SDS011;45330;51.634;5.562;2024-01-15T14:30:48;6.90;;;2.33;;
59512;SDS011;45330;51.634;5.562;2024-01-15T14:33:14;6.60;;;2.00;;
59512;SDS011;45330;51.634;5.562;2024-01-15T14:35:39;8.10;;;2.15;;
59512;SDS011;45330;51.634;5.562;2024-01-15T14:38:04;9.70;;;2.10;;
59512;SDS011;45330;51.634;5.562;2024-01-15T14:40:30;9.52;;;2.05;;